Scranton, ND (58653)

2:57 PM MST on February 06, 2016 (GMT -0700)
ND Hwy 67 & 84th St SW | | Change Station
CLOSE
Current Station
Personal Weather Station
Location: Scranton, ND
Elevation: 2900 ft
Nearby Weather Stations
Active Advisory: High Wind Warning

Elev 2900 ft 46.21 °N, 103.14 °W | Updated 5 minutes ago

Partly Cloudy
Partly Cloudy
47.5 °F
Feels Like 38 °F
N
37.2
Wind Variable Wind from West

Today
High -- | Low -- °F
--% Chance of Precip.
Yesterday
High -- | Low -- °F
Precip. -- in
Pressure 29.84 in
Visibility 10.0 miles
Clouds Few 8000 ft
Scattered Clouds 10000 ft
Windchill 38 °F
Dew Point 15 °F
Humidity 27%
Rainfall 0.00 in
Snow Depth Not available.
7:09 AM 5:04 PM
Waning Crescent, 4% visible
METAR KHEI 062153Z AUTO 28033G53KT 10SM FEW080 SCT100 10/M10 A2979 RMK AO2 PK WND 28057/2126 SLP104 T01001100
Pressure 29.84 in
Visibility 10.0 miles
Clouds Few 8000 ft
Scattered Clouds 10000 ft
Windchill 38 °F
Dew Point 15 °F
Humidity 27%
Rainfall 0.00 in
Snow Depth Not available.
7:09 AM 5:04 PM
Waning Crescent, 4% visible
METAR KHEI 062153Z AUTO 28033G53KT 10SM FEW080 SCT100 10/M10 A2979 RMK AO2 PK WND 28057/2126 SLP104 T01001100

10-Day Weather Forecast

Almanac

Astronomy

Feb. 06, 2016 Rise Set
Actual Time
Civil Twilight
Nautical Twilight
Astronomical Twilight
Moon
Length of Visible Light
Length of Day
Tomorrow will be .
, % of the Moon is Illuminated

Today's Extremes

State Highs State Lows

Community

WunderPhotos

Upload Photos

1,891,051 photos uploaded!

WunderBlog® & News

Nearby

Air Quality

  Air Quality AQ Index Pollutant
Not available.

Snow Depth

Station Depth Elevation

Earthquake Activity

City Distance Mag. Time & Date
Minimum magnitude displayed is 2.5.

Coastal Water Temperatures

Place Temperature

Stations

Nearby Weather Stations

Station Location Temp. Windchill Dew Point Humidity Wind Precip. Elev Updated Type
                   

Watches & Warnings

High Wind Warning
Issued: 1:54 PM MST Feb. 6, 2016 – National Weather Service

... High Wind Warning remains in effect until 9 PM CST /8 PM MST/
Sunday...

* timing... through early Sunday evening.

* Winds... northwest winds gusting up to 65 mph.

* Impacts... travel may become hazardous over western North
Dakota.

Precautionary/preparedness actions...

A High Wind Warning means a hazardous high wind event is expected
or occurring. Sustained wind speeds of at least 40 mph or gusts
of 58 mph or more can lead to property damage.